Time;durP1;ratioP1;P1;durP2;ratioP2;P2;SDS_P1;SDS_P2;PMS_P1;PMS_P2;Temp;Humidity;BMP_temperature;BMP_pressure;BME280_temperature;BME280_humidity;BME280_pressure;Samples;Min_cycle;Max_cycle;Signal;HPM_P1;HPM_P2
2023/06/27 00:00:48;;;;;;;2.53;1.97;;;;;;;21.15;73.30;100626.16;5083543;28;20210;-74
2023/06/27 00:03:13;;;;;;;2.60;1.90;;;;;;;21.12;73.64;100621.91;5093384;28;20209;-75
2023/06/27 00:05:38;;;;;;;2.20;1.70;;;;;;;21.13;74.45;100636.78;5079213;28;20192;-76
2023/06/27 00:08:06;;;;;;;2.67;1.80;;;;;;;21.12;74.76;100626.28;5079132;28;20184;-76
2023/06/27 00:10:32;;;;;;;3.03;1.90;;;;;;;21.11;74.90;100629.84;5081037;28;20188;-76
2023/06/27 00:12:58;;;;;;;2.80;1.80;;;;;;;21.08;74.96;100636.13;5087917;28;20202;-75
2023/06/27 00:15:24;;;;;;;3.00;1.83;;;;;;;21.07;75.01;100626.53;5096431;28;20215;-77
2023/06/27 00:17:51;;;;;;;2.13;1.80;;;;;;;21.07;75.30;100639.69;5097268;28;20182;-75
2023/06/27 00:20:17;;;;;;;2.93;1.73;;;;;;;21.06;74.63;100640.59;5082431;28;20199;-75
2023/06/27 00:22:42;;;;;;;2.20;1.40;;;;;;;21.05;74.31;100648.59;5085606;28;20528;-76
2023/06/27 00:25:09;;;;;;;2.33;1.50;;;;;;;21.01;74.06;100645.25;5083338;28;20273;-76
2023/06/27 00:27:35;;;;;;;3.10;2.03;;;;;;;21.00;73.21;100652.28;5083864;28;20585;-76
2023/06/27 00:30:00;;;;;;;3.00;2.10;;;;;;;20.99;73.11;100653.19;5088756;28;21099;-75
2023/06/27 00:32:26;;;;;;;4.10;2.53;;;;;;;20.96;72.92;100655.13;5094639;28;20189;-77
2023/06/27 00:34:51;;;;;;;4.07;2.27;;;;;;;20.92;73.18;100657.06;5082432;28;20256;-76
2023/06/27 00:37:17;;;;;;;4.50;2.23;;;;;;;20.90;73.42;100664.16;5081269;28;20185;-76
2023/06/27 00:39:42;;;;;;;6.70;2.33;;;;;;;20.86;73.89;100658.19;5083404;28;20176;-76
2023/06/27 00:42:07;;;;;;;2.07;1.83;;;;;;;20.88;74.60;100666.00;5080918;28;20189;-75
2023/06/27 00:44:33;;;;;;;3.27;2.00;;;;;;;20.88;75.10;100662.50;5085669;28;20319;-74
2023/06/27 00:46:58;;;;;;;3.17;2.23;;;;;;;20.85;74.97;100659.13;5098887;27;20195;-75
2023/06/27 00:49:24;;;;;;;3.93;2.20;;;;;;;20.84;75.08;100656.53;5082388;28;20583;-76
2023/06/27 00:51:51;;;;;;;4.07;2.30;;;;;;;20.82;75.33;100659.25;5091819;28;20192;-75
2023/06/27 00:54:17;;;;;;;3.87;2.23;;;;;;;20.79;75.25;100656.75;5080326;28;20767;-75
2023/06/27 00:56:44;;;;;;;3.87;2.23;;;;;;;20.77;76.26;100657.75;5085715;28;20179;-76
2023/06/27 00:59:11;;;;;;;3.10;1.87;;;;;;;20.75;76.63;100663.06;5083291;28;20690;-76
2023/06/27 01:01:37;;;;;;;5.57;2.20;;;;;;;20.72;76.25;100663.19;5091102;28;20265;-76
2023/06/27 01:04:02;;;;;;;4.23;1.90;;;;;;;20.71;76.53;100662.34;5081467;28;20208;-76
2023/06/27 01:06:38;;;;;;;2.90;1.70;;;;;;;20.70;76.48;100667.69;5081910;28;20188;-76
2023/06/27 01:09:10;;;;;;;2.30;1.87;;;;;;;20.70;75.82;100665.03;5093088;27;20211;-75
2023/06/27 01:11:49;;;;;;;3.07;2.07;;;;;;;20.67;75.57;100668.66;5101426;27;20181;-76
2023/06/27 01:14:18;;;;;;;2.20;1.97;;;;;;;20.66;76.32;100661.69;5086812;28;20755;-76
2023/06/27 01:16:46;;;;;;;3.87;2.03;;;;;;;20.66;77.21;100661.69;5081096;28;20203;-76
2023/06/27 01:19:13;;;;;;;3.00;1.70;;;;;;;20.67;78.00;100666.03;5095053;28;20735;-74
2023/06/27 01:21:39;;;;;;;2.77;2.13;;;;;;;20.68;78.13;100666.88;5093468;28;20188;-75
2023/06/27 01:24:08;;;;;;;4.37;1.80;;;;;;;20.66;77.89;100669.56;5097850;28;20299;-76
2023/06/27 01:26:34;;;;;;;3.30;2.07;;;;;;;20.65;78.15;100672.28;5078373;28;20244;-76
2023/06/27 01:29:00;;;;;;;4.30;1.90;;;;;;;20.63;78.41;100661.84;5077118;28;20208;-76
2023/06/27 01:32:01;;;;;;;3.33;1.80;;;;;;;20.62;79.01;100672.41;5082356;28;20190;-76
2023/06/27 01:34:40;;;;;;;2.97;1.87;;;;;;;20.56;79.40;100671.78;5076643;28;20258;-75
2023/06/27 01:37:17;;;;;;;3.23;2.27;;;;;;;20.53;80.22;100661.41;5081467;28;20195;-76
2023/06/27 01:39:46;;;;;;;2.27;1.90;;;;;;;20.52;81.32;100664.94;5080626;28;20321;-76
2023/06/27 01:42:18;;;;;;;3.47;1.77;;;;;;;20.52;82.30;100664.94;5080674;28;20204;-76
2023/06/27 01:44:46;;;;;;;2.80;1.90;;;;;;;20.48;81.79;100671.25;5081238;28;20272;-76
2023/06/27 01:47:13;;;;;;;2.50;1.70;;;;;;;20.48;81.76;100667.78;5083466;28;20187;-77
2023/06/27 01:49:38;;;;;;;4.17;1.93;;;;;;;20.45;81.32;100668.75;5081152;28;20671;-75
2023/06/27 01:52:05;;;;;;;2.50;2.10;;;;;;;20.41;81.78;100668.03;5080077;28;20327;-76
2023/06/27 01:54:30;;;;;;;3.33;2.17;;;;;;;20.39;81.38;100667.25;5085429;28;20304;-76
2023/06/27 01:56:55;;;;;;;2.30;1.90;;;;;;;20.35;80.98;100667.47;5087743;28;20282;-76
2023/06/27 01:59:21;;;;;;;2.57;1.73;;;;;;;20.31;80.58;100658.88;5081423;28;20234;-75
2023/06/27 02:01:46;;;;;;;1.87;1.70;;;;;;;20.29;80.12;100652.81;5086412;28;20204;-76
2023/06/27 02:04:11;;;;;;;2.97;2.10;;;;;;;20.27;79.56;100659.91;5075276;28;20357;-76
2023/06/27 02:06:37;;;;;;;2.60;1.70;;;;;;;20.27;78.90;100659.91;5083887;28;20182;-76
2023/06/27 02:09:03;;;;;;;3.00;2.17;;;;;;;20.24;79.47;100658.28;5085506;28;20204;-76
2023/06/27 02:11:28;;;;;;;3.23;1.80;;;;;;;20.30;81.95;100661.53;5090228;28;20625;-74
2023/06/27 02:13:54;;;;;;;2.90;1.97;;;;;;;20.32;83.05;100655.31;5089787;28;20261;-76
2023/06/27 02:16:19;;;;;;;5.40;2.43;;;;;;;20.23;79.30;100659.19;5075830;28;20222;-77
2023/06/27 02:18:44;;;;;;;2.87;2.30;;;;;;;20.07;79.42;100655.53;5080989;28;20175;-76
2023/06/27 02:21:10;;;;;;;3.70;1.93;;;;;;;20.03;80.11;100656.56;5092190;28;20285;-77
2023/06/27 02:23:36;;;;;;;2.13;1.87;;;;;;;20.02;81.84;100658.34;5089465;28;20208;-76
2023/06/27 02:26:03;;;;;;;2.27;1.83;;;;;;;20.02;82.62;100650.47;5081713;28;20207;-77
2023/06/27 02:28:29;;;;;;;2.60;2.13;;;;;;;20.01;82.84;100658.41;5080137;28;20225;-76
2023/06/27 02:30:54;;;;;;;1.90;1.70;;;;;;;20.01;82.65;100659.28;5088607;28;20190;-76
2023/06/27 02:33:20;;;;;;;2.40;2.07;;;;;;;19.99;82.80;100660.25;5095564;27;20245;-76
2023/06/27 02:35:45;;;;;;;2.43;1.70;;;;;;;19.99;84.39;100655.84;5092183;28;20235;-76
2023/06/27 02:38:10;;;;;;;2.37;1.80;;;;;;;19.99;85.08;100660.25;5083387;28;20239;-75
2023/06/27 02:40:36;;;;;;;3.27;2.13;;;;;;;19.96;85.87;100655.97;5081364;28;20188;-76
2023/06/27 02:43:01;;;;;;;2.60;2.40;;;;;;;19.94;85.43;100657.81;5079575;28;20728;-77
2023/06/27 02:45:26;;;;;;;3.17;2.20;;;;;;;19.90;86.05;100657.09;5084906;28;20192;-77
2023/06/27 02:47:51;;;;;;;4.23;2.40;;;;;;;19.87;85.63;100656.38;5079165;28;20200;-75
2023/06/27 02:50:17;;;;;;;4.17;2.40;;;;;;;19.82;84.99;100660.94;5079508;28;20239;-76
2023/06/27 02:52:42;;;;;;;2.47;2.13;;;;;;;19.71;83.63;100654.34;5088730;28;20206;-77
2023/06/27 02:55:07;;;;;;;3.53;2.33;;;;;;;19.63;82.19;100667.81;5090298;28;21028;-75
2023/06/27 02:57:33;;;;;;;4.33;2.60;;;;;;;19.63;84.48;100661.69;5081166;28;20239;-75
2023/06/27 02:59:58;;;;;;;2.70;2.20;;;;;;;19.62;84.97;100663.47;5081235;28;20289;-76
2023/06/27 03:02:23;;;;;;;4.23;2.17;;;;;;;19.61;84.45;100666.13;5081141;28;20187;-75
2023/06/27 03:04:50;;;;;;;3.00;2.13;;;;;;;19.60;84.82;100665.28;5087098;28;20636;-76
2023/06/27 03:07:15;;;;;;;2.90;2.40;;;;;;;19.61;85.43;100668.75;5081221;28;20197;-76
2023/06/27 03:09:40;;;;;;;3.60;2.40;;;;;;;19.61;86.04;100667.00;5075204;28;20207;-74
2023/06/27 03:12:06;;;;;;;2.30;2.10;;;;;;;19.62;86.29;100660.84;5082214;28;20207;-76
2023/06/27 03:14:32;;;;;;;2.27;2.07;;;;;;;19.62;85.98;100662.59;5089825;28;20224;-76
2023/06/27 03:16:57;;;;;;;2.00;1.80;;;;;;;19.61;86.41;100660.88;5084757;28;20662;-76
2023/06/27 03:19:22;;;;;;;2.40;1.97;;;;;;;19.57;86.26;100667.19;5082583;28;20218;-78
2023/06/27 03:21:48;;;;;;;2.83;2.03;;;;;;;19.55;85.60;100663.78;5096126;28;20272;-76
2023/06/27 03:24:13;;;;;;;2.53;2.17;;;;;;;19.52;85.52;100667.34;5091744;28;20289;-76
2023/06/27 03:26:38;;;;;;;2.10;1.90;;;;;;;19.48;84.61;100660.53;5088559;28;20261;-77
2023/06/27 03:29:04;;;;;;;4.43;2.30;;;;;;;19.45;84.13;100656.25;5080744;28;20317;-76
2023/06/27 03:31:29;;;;;;;4.70;2.03;;;;;;;19.44;83.57;100654.53;5087913;28;20363;-76
2023/06/27 03:33:56;;;;;;;3.00;2.13;;;;;;;19.43;84.96;100655.50;5078259;28;20740;-75
2023/06/27 03:36:22;;;;;;;2.70;2.03;;;;;;;19.44;85.79;100669.44;5088883;28;20184;-75
2023/06/27 03:38:48;;;;;;;3.70;2.07;;;;;;;19.41;86.23;100666.94;5096670;28;20207;-75
2023/06/27 03:41:13;;;;;;;3.07;2.77;;;;;;;19.38;86.79;100662.69;5085616;28;20649;-77
2023/06/27 03:43:39;;;;;;;3.33;2.10;;;;;;;19.37;87.11;100662.72;5083996;28;20238;-76
2023/06/27 03:46:04;;;;;;;2.70;2.43;;;;;;;19.36;87.09;100669.75;5101338;27;20795;-76
2023/06/27 03:48:30;;;;;;;4.23;2.53;;;;;;;19.32;87.49;100669.03;5081911;28;20259;-77
2023/06/27 03:50:56;;;;;;;4.93;2.77;;;;;;;19.30;87.81;100677.84;5084219;28;20200;-75
2023/06/27 03:53:21;;;;;;;3.53;2.40;;;;;;;19.28;88.02;100682.34;5082691;28;20764;-75
2023/06/27 03:55:47;;;;;;;2.77;2.20;;;;;;;19.26;88.43;100678.91;5084585;28;20315;-75
2023/06/27 03:58:12;;;;;;;2.47;2.27;;;;;;;19.21;88.60;100665.94;5088464;28;20264;-75
2023/06/27 04:00:38;;;;;;;4.40;2.63;;;;;;;19.19;88.74;100668.66;5070056;28;20190;-76
2023/06/27 04:03:03;;;;;;;4.40;2.30;;;;;;;19.18;88.92;100666.94;5083625;28;20201;-75
2023/06/27 04:05:28;;;;;;;2.63;2.17;;;;;;;19.16;88.81;100663.50;5086873;28;20550;-75
2023/06/27 04:07:54;;;;;;;2.63;2.10;;;;;;;19.11;89.08;100683.84;5085478;28;20336;-74
2023/06/27 04:10:19;;;;;;;2.30;2.10;;;;;;;19.06;88.82;100674.44;5086305;28;20730;-75
2023/06/27 04:12:45;;;;;;;2.90;2.33;;;;;;;19.02;88.77;100671.06;5076896;28;20608;-75
2023/06/27 04:15:10;;;;;;;3.20;2.33;;;;;;;19.03;89.06;100668.41;5088447;28;20203;-75
2023/06/27 04:17:35;;;;;;;3.43;2.80;;;;;;;19.07;89.43;100674.38;5090170;28;20184;-75
2023/06/27 04:20:02;;;;;;;2.87;2.53;;;;;;;19.12;89.00;100679.44;5088760;28;20190;-75
2023/06/27 04:22:27;;;;;;;4.40;2.63;;;;;;;19.15;89.22;100674.91;5093538;28;20194;-75
2023/06/27 04:24:52;;;;;;;3.63;2.60;;;;;;;19.20;88.60;100682.63;5095495;28;20202;-76
2023/06/27 04:27:18;;;;;;;3.67;2.70;;;;;;;19.25;87.86;100680.66;5079321;28;20213;-76
2023/06/27 04:29:43;;;;;;;3.40;2.70;;;;;;;19.32;88.03;100686.53;5080482;28;20201;-72
2023/06/27 04:32:08;;;;;;;3.70;2.97;;;;;;;19.40;88.09;100691.47;5082758;28;20279;-75
2023/06/27 04:34:36;;;;;;;5.03;2.80;;;;;;;19.44;88.24;100690.44;5081763;28;20309;-75
2023/06/27 04:37:05;;;;;;;3.43;2.70;;;;;;;19.48;88.15;100687.63;5082028;28;20192;-74
2023/06/27 04:39:30;;;;;;;3.00;2.70;;;;;;;19.54;88.25;100694.41;5091152;28;20210;-75
2023/06/27 04:41:59;;;;;;;3.73;2.40;;;;;;;19.60;88.29;100698.56;5087248;28;20215;-76
2023/06/27 04:44:24;;;;;;;3.00;2.43;;;;;;;19.66;87.87;100685.19;5092338;28;20230;-76
2023/06/27 04:46:50;;;;;;;3.50;2.23;;;;;;;19.75;88.23;100690.06;5079845;28;21002;-75
2023/06/27 04:49:15;;;;;;;3.90;2.27;;;;;;;19.83;87.81;100681.84;5086855;28;20592;-75
2023/06/27 04:51:40;;;;;;;5.17;2.47;;;;;;;19.93;87.83;100675.34;5078980;28;20192;-75
2023/06/27 04:54:06;;;;;;;3.30;2.40;;;;;;;20.03;87.32;100691.59;5085833;28;20213;-76
2023/06/27 04:56:33;;;;;;;2.30;2.00;;;;;;;20.13;87.18;100688.56;5092794;28;20271;-73
2023/06/27 04:58:59;;;;;;;2.70;2.20;;;;;;;20.23;85.95;100689.88;5094405;28;20232;-75
2023/06/27 05:01:24;;;;;;;2.53;2.20;;;;;;;20.34;85.54;100692.91;5094271;28;20190;-75
2023/06/27 05:03:50;;;;;;;3.77;2.13;;;;;;;20.45;84.77;100694.22;5081921;28;20211;-76
2023/06/27 05:06:15;;;;;;;2.83;2.00;;;;;;;20.54;84.20;100684.13;5083044;28;21039;-76
2023/06/27 05:08:41;;;;;;;4.33;2.13;;;;;;;20.65;83.88;100690.69;5084704;28;20228;-76
2023/06/27 05:11:06;;;;;;;3.50;2.37;;;;;;;20.71;82.76;100696.53;5086581;28;20208;-76
2023/06/27 05:13:31;;;;;;;3.13;2.20;;;;;;;20.79;82.21;100698.00;5087598;28;20256;-76
2023/06/27 05:15:57;;;;;;;2.97;2.10;;;;;;;20.90;82.00;100702.75;5090387;28;20201;-76
2023/06/27 05:18:24;;;;;;;2.70;2.40;;;;;;;20.99;82.19;100702.34;5103512;27;20271;-76
2023/06/27 05:20:49;;;;;;;4.63;2.30;;;;;;;21.08;82.34;100701.06;5085694;28;20317;-76
2023/06/27 05:23:14;;;;;;;4.30;2.13;;;;;;;21.20;82.47;100702.25;5092075;28;20228;-76
2023/06/27 05:25:40;;;;;;;3.33;2.03;;;;;;;21.32;82.08;100702.53;5098801;28;20267;-76
2023/06/27 05:28:05;;;;;;;2.93;2.03;;;;;;;21.50;81.80;100718.38;5107237;28;20255;-76
2023/06/27 05:30:31;;;;;;;3.47;2.40;;;;;;;21.67;81.33;100703.59;5096295;28;20196;-76
2023/06/27 05:33:03;;;;;;;2.73;2.10;;;;;;;21.85;80.61;100709.72;5092634;28;20590;-76
2023/06/27 05:35:28;;;;;;;3.57;1.97;;;;;;;22.00;79.83;100713.38;5091964;28;20177;-76
2023/06/27 05:37:54;;;;;;;3.20;2.10;;;;;;;22.30;79.34;100718.03;5094436;28;20177;-76
2023/06/27 05:40:19;;;;;;;2.60;2.00;;;;;;;22.58;77.34;100724.53;5089296;28;20185;-76
2023/06/27 05:42:44;;;;;;;3.17;2.50;;;;;;;22.71;76.15;100724.72;5085582;28;20185;-76
2023/06/27 05:45:10;;;;;;;3.10;2.30;;;;;;;22.93;75.63;100727.94;5084294;28;20185;-76
2023/06/27 05:47:35;;;;;;;3.30;2.50;;;;;;;23.22;74.94;100729.94;5092487;28;20257;-76
2023/06/27 05:50:01;;;;;;;5.13;2.57;;;;;;;23.52;74.70;100729.19;5087510;28;20522;-76
2023/06/27 05:52:28;;;;;;;5.43;2.90;;;;;;;23.63;73.18;100723.25;5084167;28;20217;-76
2023/06/27 05:54:54;;;;;;;6.73;3.17;;;;;;;23.65;71.07;100724.03;5072680;28;20278;-76
2023/06/27 05:57:20;;;;;;;3.60;2.50;;;;;;;24.06;71.91;100720.81;5086699;28;20189;-76
2023/06/27 05:59:45;;;;;;;4.50;2.67;;;;;;;24.63;71.34;100721.84;5084942;28;20197;-77
2023/06/27 06:02:10;;;;;;;5.87;2.77;;;;;;;25.21;70.46;100722.66;5085418;28;20738;-77
2023/06/27 06:04:36;;;;;;;5.60;2.90;;;;;;;25.76;67.89;100713.91;5077782;28;20213;-77
2023/06/27 06:07:03;;;;;;;7.03;2.70;;;;;;;25.34;67.20;100719.22;5089481;28;20197;-76
2023/06/27 06:09:30;;;;;;;3.47;2.37;;;;;;;25.78;65.92;100726.13;5075300;28;20213;-77
2023/06/27 06:11:55;;;;;;;6.03;2.70;;;;;;;26.26;64.63;100708.81;5082133;28;20198;-77
2023/06/27 06:14:20;;;;;;;4.57;2.30;;;;;;;26.47;64.87;100714.47;5080900;28;20208;-77
2023/06/27 06:16:46;;;;;;;3.30;2.10;;;;;;;26.98;64.03;100713.59;5076588;28;20894;-76
2023/06/27 06:19:11;;;;;;;2.73;2.23;;;;;;;27.39;62.48;100708.84;5069887;28;20190;-76
2023/06/27 06:21:37;;;;;;;4.43;2.20;;;;;;;27.89;59.91;100711.41;5077854;28;20666;-76
2023/06/27 06:24:02;;;;;;;2.83;2.22;;;;;;;28.16;58.77;100707.63;5082284;28;20281;-77
2023/06/27 06:26:28;;;;;;;4.63;2.13;;;;;;;28.31;59.63;100702.09;5074162;28;20746;-77
2023/06/27 06:28:53;;;;;;;2.97;2.00;;;;;;;28.18;59.21;100712.81;5076416;28;20205;-77
2023/06/27 06:31:20;;;;;;;4.55;2.35;;;;;;;28.05;59.05;100716.41;5077055;28;20193;-77
2023/06/27 06:33:48;;;;;;;3.03;2.10;;;;;;;27.65;57.97;100711.44;5073480;28;20196;-77
2023/06/27 06:36:13;;;;;;;3.00;1.77;;;;;;;27.82;56.18;100711.03;5082841;28;20233;-77
2023/06/27 06:38:39;;;;;;;3.72;1.90;;;;;;;28.11;54.46;100710.66;5082672;28;20281;-77
2023/06/27 06:41:05;;;;;;;3.25;1.67;;;;;;;27.64;55.02;100715.06;5090803;28;20746;-76
2023/06/27 06:43:30;;;;;;;3.35;1.90;;;;;;;27.97;54.34;100713.50;5095074;28;20266;-76
2023/06/27 06:45:56;;;;;;;2.65;1.52;;;;;;;28.23;55.24;100706.19;5080259;28;20197;-76
2023/06/27 06:48:22;;;;;;;2.47;1.67;;;;;;;28.39;55.12;100703.19;5086687;28;20217;-77
2023/06/27 06:50:50;;;;;;;2.75;1.60;;;;;;;28.08;54.60;100702.88;5091659;28;20574;-77
2023/06/27 06:53:15;;;;;;;2.13;1.60;;;;;;;27.00;56.26;100703.66;5094629;28;20197;-77
2023/06/27 06:55:40;;;;;;;3.53;1.80;;;;;;;27.38;56.22;100707.16;5088162;28;20199;-77
2023/06/27 06:58:06;;;;;;;3.75;1.98;;;;;;;27.60;55.97;100716.25;5093137;28;20226;-77
2023/06/27 07:00:31;;;;;;;4.80;1.88;;;;;;;26.59;58.17;100715.41;5073017;28;20251;-77
2023/06/27 07:02:57;;;;;;;3.45;1.75;;;;;;;27.35;56.90;100716.22;5079118;28;20242;-77
2023/06/27 07:05:23;;;;;;;3.17;1.90;;;;;;;27.23;57.15;100714.44;5097168;28;20261;-77
2023/06/27 07:07:48;;;;;;;2.15;1.75;;;;;;;27.61;56.61;100717.94;5107983;28;20619;-77
2023/06/27 07:10:14;;;;;;;2.63;2.00;;;;;;;27.78;56.19;100709.56;5088479;28;20285;-77
2023/06/27 07:12:40;;;;;;;2.63;1.75;;;;;;;28.02;56.86;100707.81;5094128;28;20181;-78
2023/06/27 07:15:06;;;;;;;3.35;2.00;;;;;;;27.31;56.75;100709.41;5085886;28;20779;-77
2023/06/27 07:17:32;;;;;;;3.17;1.83;;;;;;;27.41;57.16;100708.75;5102805;28;20185;-78
2023/06/27 07:19:58;;;;;;;2.92;2.03;;;;;;;27.91;56.08;100712.13;5093748;28;20177;-77
2023/06/27 07:22:23;;;;;;;3.13;1.95;;;;;;;27.38;55.94;100709.81;5108366;28;20192;-76
2023/06/27 07:24:49;;;;;;;3.28;1.30;;;;;;;27.57;56.54;100714.69;5100717;28;20212;-77
2023/06/27 07:27:14;;;;;;;3.65;1.85;;;;;;;26.36;55.54;100717.00;5095144;28;20656;-78
2023/06/27 07:29:39;;;;;;;3.47;1.63;;;;;;;26.27;56.83;100723.78;5099051;28;20201;-78
2023/06/27 07:32:05;;;;;;;3.72;1.60;;;;;;;26.39;56.05;100716.78;5094483;28;20181;-77
2023/06/27 07:34:32;;;;;;;4.18;1.90;;;;;;;26.90;55.87;100719.44;5091027;28;20265;-76
2023/06/27 07:36:57;;;;;;;4.53;2.05;;;;;;;27.28;55.08;100714.13;5100449;28;20204;-78
2023/06/27 07:39:22;;;;;;;2.88;1.48;;;;;;;27.82;55.47;100718.16;5094778;28;20184;-77
2023/06/27 07:41:48;;;;;;;2.72;1.90;;;;;;;28.60;54.50;100713.09;5094482;28;20216;-77
2023/06/27 07:44:14;;;;;;;1.90;1.70;;;;;;;28.92;54.55;100701.75;5088655;28;20237;-77
2023/06/27 07:46:39;;;;;;;3.35;1.65;;;;;;;28.73;52.04;100715.69;5087757;28;20303;-77
2023/06/27 07:49:04;;;;;;;3.88;1.75;;;;;;;26.63;54.03;100711.59;5101021;28;20227;-74
2023/06/27 07:51:31;;;;;;;2.90;1.80;;;;;;;27.40;54.98;100699.91;5097791;28;20216;-77
2023/06/27 07:53:56;;;;;;;2.92;1.95;;;;;;;26.83;53.89;100698.75;5088184;28;20232;-77
2023/06/27 07:56:22;;;;;;;2.65;1.50;;;;;;;27.57;53.12;100696.06;5083476;28;20250;-77
2023/06/27 07:58:47;;;;;;;2.95;1.95;;;;;;;27.60;53.16;100690.53;5090661;28;20177;-78
2023/06/27 08:01:13;;;;;;;3.17;1.23;;;;;;;28.40;53.03;100682.72;5097867;28;20733;-77
2023/06/27 08:03:38;;;;;;;2.97;1.60;;;;;;;28.85;52.55;100684.56;5095220;28;20258;-77
2023/06/27 08:06:04;;;;;;;2.05;1.70;;;;;;;29.02;51.85;100672.56;5102665;28;20730;-77
2023/06/27 08:08:29;;;;;;;4.15;1.80;;;;;;;29.10;53.58;100680.78;5090411;28;20553;-77
2023/06/27 08:10:56;;;;;;;3.17;1.35;;;;;;;28.89;52.30;100676.22;5094542;28;20177;-77
2023/06/27 08:13:22;;;;;;;3.85;1.80;;;;;;;29.02;51.34;100677.88;5103927;28;20197;-77
2023/06/27 08:15:47;;;;;;;2.95;1.60;;;;;;;29.39;51.24;100676.72;5085689;28;20199;-78
2023/06/27 08:18:12;;;;;;;3.30;1.83;;;;;;;28.94;52.08;100680.34;5089466;28;20166;-77
2023/06/27 08:20:38;;;;;;;3.28;1.75;;;;;;;27.80;52.17;100677.53;5094214;28;20209;-77
2023/06/27 08:23:03;;;;;;;3.28;2.00;;;;;;;27.49;52.87;100687.78;5085908;27;20205;-77
2023/06/27 08:25:28;;;;;;;3.15;1.80;;;;;;;27.83;52.45;100678.13;5088762;28;20688;-77
2023/06/27 08:27:54;;;;;;;3.35;1.80;;;;;;;27.22;53.68;100671.13;5092886;28;20285;-76
2023/06/27 08:30:19;;;;;;;2.95;1.70;;;;;;;27.57;53.02;100673.94;5088302;28;20258;-77
2023/06/27 08:32:45;;;;;;;3.10;1.70;;;;;;;27.83;53.51;100661.34;5096337;28;20180;-77
2023/06/27 08:35:11;;;;;;;2.40;1.63;;;;;;;28.06;53.75;100664.91;5084958;28;20186;-76
2023/06/27 08:37:36;;;;;;;3.90;1.83;;;;;;;28.31;52.35;100665.66;5095920;28;20220;-77
2023/06/27 08:40:02;;;;;;;3.13;1.70;;;;;;;28.37;53.02;100664.34;5098492;27;20192;-76
2023/06/27 08:42:31;;;;;;;2.13;1.65;;;;;;;28.48;53.16;100659.03;5095839;28;20184;-77
2023/06/27 08:44:57;;;;;;;1.83;1.50;;;;;;;28.84;53.41;100659.75;5082093;28;20208;-77
2023/06/27 08:47:26;;;;;;;1.90;1.30;;;;;;;29.27;53.09;100659.91;5093712;28;20185;-77
2023/06/27 08:49:59;;;;;;;2.42;1.55;;;;;;;29.98;51.64;100655.81;5093256;28;20834;-75
2023/06/27 08:52:25;;;;;;;1.90;1.27;;;;;;;30.02;51.84;100646.59;5083617;28;20986;-76
2023/06/27 08:54:55;;;;;;;3.80;1.77;;;;;;;30.19;51.27;100647.78;5087205;28;20998;-75
2023/06/27 08:57:26;;;;;;;3.50;1.67;;;;;;;30.10;51.94;100644.94;5094767;28;20188;-77
2023/06/27 08:59:54;;;;;;;2.63;1.50;;;;;;;29.94;51.24;100648.06;5080800;28;20188;-76
2023/06/27 09:02:20;;;;;;;1.77;1.40;;;;;;;29.43;51.86;100651.50;5078128;28;20232;-76
2023/06/27 09:04:46;;;;;;;2.88;1.60;;;;;;;29.27;52.41;100638.56;5081309;28;20235;-77
2023/06/27 09:07:12;;;;;;;4.07;2.05;;;;;;;28.26;51.58;100643.91;5087929;28;20196;-78
2023/06/27 09:09:38;;;;;;;4.85;2.17;;;;;;;27.81;53.10;100642.84;5085747;28;20669;-76
2023/06/27 09:12:04;;;;;;;4.32;1.90;;;;;;;27.65;52.50;100651.13;5073977;28;20189;-77
2023/06/27 09:14:30;;;;;;;3.60;2.00;;;;;;;27.82;52.81;100644.56;5083241;28;20216;-77
2023/06/27 09:16:55;;;;;;;1.73;1.40;;;;;;;27.98;53.58;100638.06;5085608;28;20602;-77
2023/06/27 09:19:21;;;;;;;2.13;1.60;;;;;;;28.10;53.71;100629.16;5100948;28;20188;-76
2023/06/27 09:21:48;;;;;;;3.00;1.70;;;;;;;28.25;52.76;100632.41;5096403;28;20211;-77
2023/06/27 09:24:16;;;;;;;2.10;1.67;;;;;;;28.33;53.81;100636.28;5102600;28;20208;-77
2023/06/27 09:26:42;;;;;;;3.40;1.77;;;;;;;28.09;52.70;100635.44;5086514;28;20196;-76
2023/06/27 09:29:07;;;;;;;3.00;1.70;;;;;;;28.15;53.08;100639.41;5092431;28;20228;-78
2023/06/27 09:31:33;;;;;;;3.57;1.97;;;;;;;28.02;53.14;100631.50;5098479;28;20946;-78
2023/06/27 09:34:11;;;;;;;4.30;2.00;;;;;;;27.57;53.70;100640.25;5098714;28;20558;-77
2023/06/27 09:36:38;;;;;;;2.73;1.70;;;;;;;27.51;53.96;100644.22;5095101;28;20184;-76
2023/06/27 09:39:08;;;;;;;2.90;1.80;;;;;;;27.53;53.92;100641.44;5086189;28;20181;-77
2023/06/27 09:41:42;;;;;;;3.17;1.70;;;;;;;27.37;54.04;100645.19;5080344;28;20183;-77
2023/06/27 09:44:17;;;;;;;2.93;1.70;;;;;;;27.41;54.25;100639.66;5092441;28;20212;-77
2023/06/27 09:46:47;;;;;;;4.73;2.77;;;;;;;26.94;53.96;100632.44;5095370;28;20198;-76
2023/06/27 09:49:14;;;;;;;3.07;1.90;;;;;;;26.85;54.63;100641.91;5087839;28;20192;-77
2023/06/27 09:51:40;;;;;;;2.80;1.90;;;;;;;27.15;54.73;100634.47;5083931;28;20624;-77
2023/06/27 09:54:05;;;;;;;2.67;2.03;;;;;;;27.21;54.44;100639.31;5085590;28;20225;-76
2023/06/27 09:56:32;;;;;;;4.47;2.23;;;;;;;27.03;54.84;100641.53;5095167;28;20649;-77
2023/06/27 09:59:07;;;;;;;3.40;2.37;;;;;;;26.57;55.11;100645.66;5091478;28;20529;-77
2023/06/27 10:01:35;;;;;;;2.77;1.93;;;;;;;26.84;55.35;100642.03;5099303;28;20168;-76
2023/06/27 10:04:00;;;;;;;4.63;1.90;;;;;;;27.03;55.23;100638.88;5084312;28;20663;-77
2023/06/27 10:06:25;;;;;;;2.73;1.70;;;;;;;27.28;55.11;100632.59;5085939;28;20302;-76
2023/06/27 10:08:51;;;;;;;3.47;2.00;;;;;;;27.63;54.92;100641.59;5089580;28;20197;-76
2023/06/27 10:11:17;;;;;;;3.13;2.40;;;;;;;27.68;54.30;100634.94;5098547;28;20188;-77
2023/06/27 10:13:43;;;;;;;2.20;1.57;;;;;;;27.88;54.75;100637.03;5090749;28;20303;-76
2023/06/27 10:16:08;;;;;;;3.33;1.80;;;;;;;28.02;54.54;100634.16;5092710;28;20217;-76
2023/06/27 10:18:34;;;;;;;5.97;2.00;;;;;;;27.84;53.77;100644.41;5082918;28;20289;-77
2023/06/27 10:20:59;;;;;;;4.97;1.93;;;;;;;27.99;54.30;100635.25;5086439;28;20181;-76
2023/06/27 10:23:25;;;;;;;2.23;1.70;;;;;;;28.15;54.44;100634.09;5085244;28;20197;-76
2023/06/27 10:25:52;;;;;;;2.03;1.57;;;;;;;28.28;53.67;100632.16;5087236;28;20265;-77
2023/06/27 10:28:20;;;;;;;2.77;1.93;;;;;;;28.35;53.81;100627.22;5096316;28;20180;-77
2023/06/27 10:30:46;;;;;;;2.37;1.60;;;;;;;28.40;54.01;100625.03;5097716;28;20216;-78
2023/06/27 10:33:27;;;;;;;1.83;1.50;;;;;;;28.60;53.33;100630.56;5085111;28;20212;-77
2023/06/27 10:35:57;;;;;;;3.00;2.00;;;;;;;28.57;53.39;100634.34;5082012;28;20529;-76
2023/06/27 10:38:23;;;;;;;2.33;1.87;;;;;;;28.72;53.55;100634.06;5086946;28;20177;-78
2023/06/27 10:41:05;;;;;;;2.60;1.70;;;;;;;28.77;53.03;100644.38;5095552;28;20176;-76
2023/06/27 10:43:45;;;;;;;3.27;2.00;;;;;;;28.59;51.80;100645.72;5087041;28;20236;-76
2023/06/27 10:46:17;;;;;;;3.27;1.90;;;;;;;28.80;52.28;100641.47;5093644;28;20183;-77
2023/06/27 10:49:06;;;;;;;3.20;1.90;;;;;;;28.81;53.04;100646.69;5089346;28;20189;-76
2023/06/27 10:51:43;;;;;;;1.50;1.40;;;;;;;28.92;52.73;100637.81;5086188;28;20275;-77
2023/06/27 10:54:08;;;;;;;3.80;1.73;;;;;;;29.08;52.02;100636.56;5090427;28;20200;-77
2023/06/27 10:56:34;;;;;;;2.95;2.00;;;;;;;28.98;51.19;100637.31;5088459;28;20232;-77
2023/06/27 10:59:02;;;;;;;2.70;1.87;;;;;;;28.99;51.11;100632.84;5093291;28;20264;-77
2023/06/27 11:01:27;;;;;;;1.73;1.60;;;;;;;29.17;51.01;100633.16;5091503;28;20177;-77
2023/06/27 11:03:57;;;;;;;2.70;1.63;;;;;;;29.18;50.41;100641.00;5085135;28;20215;-77
2023/06/27 11:06:42;;;;;;;2.53;1.73;;;;;;;28.91;50.27;100633.47;5084271;28;20209;-76
2023/06/27 11:09:13;;;;;;;2.37;1.63;;;;;;;28.86;51.52;100636.50;5068602;28;20279;-77
2023/06/27 11:11:39;;;;;;;2.10;1.70;;;;;;;28.95;50.64;100629.56;5086613;28;20861;-77
2023/06/27 11:14:06;;;;;;;2.57;1.53;;;;;;;29.10;51.68;100630.16;5088821;28;20288;-77
2023/06/27 11:16:35;;;;;;;3.27;1.90;;;;;;;29.29;51.74;100623.28;5085021;28;20193;-77
2023/06/27 11:19:03;;;;;;;3.33;2.10;;;;;;;29.33;53.22;100622.91;5087222;28;20197;-76
2023/06/27 11:21:31;;;;;;;3.60;2.10;;;;;;;29.32;50.99;100620.38;5092781;28;20173;-77